PWSweather.com
Personal Weather Stations
Station Observations
WISCHPK61
Green Bay Schmitt Park, Green Bay, WI 54311

Green Bay Schmitt ParkGreen Bay, WI 54311

Lat: 44.514277, Lon: -87.935067

Elevation: 735

Station Type: Acu Rite Pro Weather Center model 02032C

http://greenbayweathercam.com

High Low Average
Temperature 47.5°F8.6°C 26.1°F-3.3°C 34.8°F1.6°C
Dew Point 36.3°F2.4°C 22.5°F-5.3°C 30.0°F-1.1°C
Winds 5.8 mph 9.3 kmh Calm Calm 2.0 mph W3.2 kmh W
Wind Gusts 5.8 mph9.3 kmh -- 2.0 mph3.2 kmh
Humidity 97% 63% 83%
Pressure 29.44 in997.0 mb 29.32 in992.9 mb -
Precipitation 0.00 in0.0 mm - -
Hour Temp Dew Point Humidity Winds Wind Gusts Pressure Precip Precip Rate Daily Precip Total
12:00 AM 34.9°F1.6°C 32.0°F0.0°C 89% 2.3 mph NW3.7 kmh NW 2.3 mph3.7 kmh 29.38 in994.9 mb - 0.00 in0.0 mm 0.00 in0.0 mm
12:15 AM 34.9°F1.6°C 32.3°F0.2°C 90% 1.2 mph W1.9 kmh W 2.3 mph3.7 kmh 29.38 in994.9 mb - 0.00 in0.0 mm 0.00 in0.0 mm
12:30 AM 34.7°F1.5°C 32.3°F0.2°C 91% 2.3 mph NW3.7 kmh NW 2.3 mph3.7 kmh 29.37 in994.6 mb - 0.00 in0.0 mm 0.00 in0.0 mm
12:45 AM 34.3°F1.3°C 32.5°F0.3°C 93% 2.3 mph N3.7 kmh N 2.3 mph3.7 kmh 29.37 in994.6 mb - 0.00 in0.0 mm 0.00 in0.0 mm
01:00 AM 34.1°F1.2°C 32.8°F0.4°C 95% 1.2 mph NE1.9 kmh NE 3.5 mph5.6 kmh 29.38 in994.9 mb - 0.00 in0.0 mm 0.00 in0.0 mm
01:15 AM 33.8°F1.0°C 33.0°F0.6°C 97% 2.3 mph NW3.7 kmh NW 2.3 mph3.7 kmh 29.37 in994.6 mb - 0.00 in0.0 mm 0.00 in0.0 mm
01:30 AM 33.6°F0.9°C 32.8°F0.4°C 97% 2.3 mph N3.7 kmh N 1.2 mph1.9 kmh 29.37 in994.6 mb - 0.00 in0.0 mm 0.00 in0.0 mm
01:45 AM 33.3°F0.7°C 32.5°F0.3°C 97% Calm Calm 2.3 mph3.7 kmh 29.37 in994.6 mb - 0.00 in0.0 mm 0.00 in0.0 mm
02:00 AM 33.1°F0.6°C 32.3°F0.2°C 97% 2.3 mph WSW3.7 kmh WSW 2.3 mph3.7 kmh 29.37 in994.6 mb - 0.00 in0.0 mm 0.00 in0.0 mm
02:15 AM 32.9°F0.5°C 32.1°F0.1°C 97% 2.3 mph NW3.7 kmh NW 2.3 mph3.7 kmh 29.36 in994.2 mb - 0.00 in0.0 mm 0.00 in0.0 mm
02:30 AM 32.9°F0.5°C 31.9°F-0.1°C 96% 2.3 mph NW3.7 kmh NW 2.3 mph3.7 kmh 29.35 in993.9 mb - 0.00 in0.0 mm 0.00 in0.0 mm
02:45 AM 32.9°F0.5°C 31.9°F-0.1°C 96% 2.3 mph NNW3.7 kmh NNW 2.3 mph3.7 kmh 29.34 in993.6 mb - 0.00 in0.0 mm 0.00 in0.0 mm
03:00 AM 33.1°F0.6°C 32.1°F0.1°C 96% 2.3 mph WNW3.7 kmh WNW 2.3 mph3.7 kmh 29.34 in993.6 mb - 0.00 in0.0 mm 0.00 in0.0 mm
03:15 AM 33.3°F0.7°C 32.3°F0.2°C 96% 2.3 mph NNW3.7 kmh NNW 2.3 mph3.7 kmh 29.33 in993.2 mb - 0.00 in0.0 mm 0.00 in0.0 mm
03:30 AM 33.3°F0.7°C 32.3°F0.2°C 96% 2.3 mph NNW3.7 kmh NNW 2.3 mph3.7 kmh 29.33 in993.2 mb - 0.00 in0.0 mm 0.00 in0.0 mm
03:45 AM 33.4°F0.8°C 32.4°F0.2°C 96% 2.3 mph NNW3.7 kmh NNW 2.3 mph3.7 kmh 29.33 in993.2 mb - 0.00 in0.0 mm 0.00 in0.0 mm
04:00 AM 33.4°F0.8°C 32.4°F0.2°C 96% 2.3 mph NW3.7 kmh NW 2.3 mph3.7 kmh 29.32 in992.9 mb - 0.00 in0.0 mm 0.00 in0.0 mm
04:15 AM 33.6°F0.9°C 32.6°F0.3°C 96% 3.5 mph NW5.6 kmh NW 3.5 mph5.6 kmh 29.33 in993.2 mb - 0.00 in0.0 mm 0.00 in0.0 mm
04:30 AM 33.6°F0.9°C 32.3°F0.2°C 95% 3.5 mph NNW5.6 kmh NNW 3.5 mph5.6 kmh 29.32 in992.9 mb - 0.00 in0.0 mm 0.00 in0.0 mm
04:45 AM 33.6°F0.9°C 32.1°F0.1°C 94% 2.3 mph NNW3.7 kmh NNW 1.2 mph1.9 kmh 29.32 in992.9 mb - 0.00 in0.0 mm 0.00 in0.0 mm
05:00 AM 33.6°F0.9°C 32.1°F0.1°C 94% 1.2 mph WNW1.9 kmh WNW 1.2 mph1.9 kmh 29.32 in992.9 mb - 0.00 in0.0 mm 0.00 in0.0 mm
05:15 AM 33.5°F0.8°C 32.3°F0.2°C 95% 1.2 mph NW1.9 kmh NW 1.2 mph1.9 kmh 29.32 in992.9 mb - 0.00 in0.0 mm 0.00 in0.0 mm
05:30 AM 33.3°F0.7°C 32.0°F0.0°C 95% 1.2 mph NNW1.9 kmh NNW 1.2 mph1.9 kmh 29.32 in992.9 mb - 0.00 in0.0 mm 0.00 in0.0 mm
05:45 AM 33.1°F0.6°C 32.1°F0.1°C 96% 3.5 mph NNW5.6 kmh NNW 3.5 mph5.6 kmh 29.32 in992.9 mb - 0.00 in0.0 mm 0.00 in0.0 mm
06:00 AM 32.9°F0.5°C 31.9°F-0.1°C 96% 2.3 mph NW3.7 kmh NW 2.3 mph3.7 kmh 29.32 in992.9 mb - 0.00 in0.0 mm 0.00 in0.0 mm
06:15 AM 32.9°F0.5°C 31.6°F-0.2°C 95% 2.3 mph NW3.7 kmh NW 2.3 mph3.7 kmh 29.32 in992.9 mb - 0.00 in0.0 mm 0.00 in0.0 mm
06:30 AM 32.9°F0.5°C 31.6°F-0.2°C 95% 2.3 mph NNW3.7 kmh NNW 2.3 mph3.7 kmh 29.33 in993.2 mb - 0.00 in0.0 mm 0.00 in0.0 mm
06:45 AM 32.9°F0.5°C 31.6°F-0.2°C 95% 2.3 mph NW3.7 kmh NW 2.3 mph3.7 kmh 29.33 in993.2 mb - 0.00 in0.0 mm 0.00 in0.0 mm
07:00 AM 33.1°F0.6°C 31.8°F-0.1°C 95% 2.3 mph NW3.7 kmh NW 2.3 mph3.7 kmh 29.33 in993.2 mb - 0.00 in0.0 mm 0.00 in0.0 mm
07:15 AM 32.5°F0.3°C 31.2°F-0.4°C 95% 1.2 mph SSW1.9 kmh SSW 1.2 mph1.9 kmh 29.34 in993.6 mb - 0.00 in0.0 mm 0.00 in0.0 mm
07:30 AM 32.2°F0.1°C 30.9°F-0.6°C 95% 2.3 mph SW3.7 kmh SW 2.3 mph3.7 kmh 29.34 in993.6 mb - 0.00 in0.0 mm 0.00 in0.0 mm
07:45 AM 32.0°F0.0°C 30.7°F-0.7°C 95% 2.3 mph NW3.7 kmh NW 2.3 mph3.7 kmh 29.34 in993.6 mb - 0.00 in0.0 mm 0.00 in0.0 mm
08:00 AM 32.2°F0.1°C 30.7°F-0.7°C 94% 1.2 mph NW1.9 kmh NW 2.3 mph3.7 kmh 29.34 in993.6 mb - 0.00 in0.0 mm 0.00 in0.0 mm
08:15 AM 32.0°F0.0°C 30.5°F-0.8°C 94% 2.3 mph NW3.7 kmh NW 2.3 mph3.7 kmh 29.35 in993.9 mb - 0.00 in0.0 mm 0.00 in0.0 mm
08:30 AM 32.7°F0.4°C 30.9°F-0.6°C 93% 2.3 mph WNW3.7 kmh WNW 2.3 mph3.7 kmh 29.34 in993.6 mb - 0.00 in0.0 mm 0.00 in0.0 mm
08:45 AM 33.0°F0.6°C 30.7°F-0.7°C 91% 1.2 mph NW1.9 kmh NW 1.2 mph1.9 kmh 29.34 in993.6 mb - 0.00 in0.0 mm 0.00 in0.0 mm
09:00 AM 34.2°F1.2°C 31.3°F-0.4°C 89% 2.3 mph NW3.7 kmh NW 2.3 mph3.7 kmh 29.34 in993.6 mb - 0.00 in0.0 mm 0.00 in0.0 mm
09:15 AM 34.9°F1.6°C 31.7°F-0.2°C 88% 3.5 mph NNW5.6 kmh NNW 3.5 mph5.6 kmh 29.34 in993.6 mb - 0.00 in0.0 mm 0.00 in0.0 mm
09:30 AM 36.9°F2.7°C 32.5°F0.3°C 84% 3.5 mph NNW5.6 kmh NNW 3.5 mph5.6 kmh 29.34 in993.6 mb - 0.00 in0.0 mm 0.00 in0.0 mm
09:45 AM 38.2°F3.4°C 32.6°F0.3°C 80% 2.3 mph NNW3.7 kmh NNW 3.5 mph5.6 kmh 29.34 in993.6 mb - 0.00 in0.0 mm 0.00 in0.0 mm
10:00 AM 39.4°F4.1°C 33.1°F0.6°C 78% 3.5 mph NW5.6 kmh NW 3.5 mph5.6 kmh 29.34 in993.6 mb - 0.00 in0.0 mm 0.00 in0.0 mm
10:15 AM 40.1°F4.5°C 33.1°F0.6°C 76% 2.3 mph NNW3.7 kmh NNW 2.3 mph3.7 kmh 29.34 in993.6 mb - 0.00 in0.0 mm 0.00 in0.0 mm
10:30 AM 39.2°F4.0°C 32.6°F0.3°C 77% 4.6 mph NW7.4 kmh NW 3.5 mph5.6 kmh 29.34 in993.6 mb - 0.00 in0.0 mm 0.00 in0.0 mm
10:45 AM 39.8°F4.3°C 33.2°F0.7°C 77% 3.5 mph N5.6 kmh N 3.5 mph5.6 kmh 29.34 in993.6 mb - 0.00 in0.0 mm 0.00 in0.0 mm
11:00 AM 41.0°F5.0°C 33.7°F0.9°C 75% 4.6 mph NNW7.4 kmh NNW 4.6 mph7.4 kmh 29.34 in993.6 mb - 0.00 in0.0 mm 0.00 in0.0 mm
11:15 AM 41.7°F5.4°C 33.7°F0.9°C 73% 4.6 mph SW7.4 kmh SW 4.6 mph7.4 kmh 29.34 in993.6 mb - 0.00 in0.0 mm 0.00 in0.0 mm
11:30 AM 43.0°F6.1°C 34.9°F1.6°C 73% 2.3 mph S3.7 kmh S 4.6 mph7.4 kmh 29.34 in993.6 mb - 0.00 in0.0 mm 0.00 in0.0 mm
11:45 AM 44.1°F6.7°C 34.2°F1.2°C 68% 2.3 mph NW3.7 kmh NW 3.5 mph5.6 kmh 29.34 in993.6 mb - 0.00 in0.0 mm 0.00 in0.0 mm
12:00 PM 44.4°F6.9°C 34.5°F1.4°C 68% 2.3 mph W3.7 kmh W 2.3 mph3.7 kmh 29.34 in993.6 mb - 0.00 in0.0 mm 0.00 in0.0 mm
12:15 PM 45.2°F7.3°C 34.9°F1.6°C 67% 3.5 mph NNW5.6 kmh NNW 3.5 mph5.6 kmh 29.34 in993.6 mb - 0.00 in0.0 mm 0.00 in0.0 mm
12:30 PM 46.8°F8.2°C 35.6°F2.0°C 65% 5.8 mph NW9.3 kmh NW 5.8 mph9.3 kmh 29.34 in993.6 mb - 0.00 in0.0 mm 0.00 in0.0 mm
12:45 PM 46.2°F7.9°C 34.7°F1.5°C 64% 4.6 mph NNW7.4 kmh NNW 5.8 mph9.3 kmh 29.34 in993.6 mb - 0.00 in0.0 mm 0.00 in0.0 mm
01:00 PM 47.5°F8.6°C 36.3°F2.4°C 65% 3.5 mph ESE5.6 kmh ESE 3.5 mph5.6 kmh 29.34 in993.6 mb - 0.00 in0.0 mm 0.00 in0.0 mm
01:15 PM 44.0°F6.7°C 33.0°F0.6°C 65% 4.6 mph WNW7.4 kmh WNW 4.6 mph7.4 kmh 29.34 in993.6 mb - 0.00 in0.0 mm 0.00 in0.0 mm
01:30 PM 43.2°F6.2°C 33.0°F0.6°C 67% 3.5 mph NW5.6 kmh NW 3.5 mph5.6 kmh 29.33 in993.2 mb - 0.00 in0.0 mm 0.00 in0.0 mm
01:45 PM 43.2°F6.2°C 33.0°F0.6°C 67% 3.5 mph NNW5.6 kmh NNW 2.3 mph3.7 kmh 29.33 in993.2 mb - 0.00 in0.0 mm 0.00 in0.0 mm
02:00 PM 42.1°F5.6°C 31.6°F-0.2°C 66% 2.3 mph WNW3.7 kmh WNW 2.3 mph3.7 kmh 29.33 in993.2 mb - 0.00 in0.0 mm 0.00 in0.0 mm
02:15 PM 41.5°F5.3°C 31.4°F-0.3°C 67% 2.3 mph SSW3.7 kmh SSW 2.3 mph3.7 kmh 29.33 in993.2 mb - 0.00 in0.0 mm 0.00 in0.0 mm
02:30 PM 43.7°F6.5°C 31.9°F-0.1°C 63% 2.3 mph NNW3.7 kmh NNW 2.3 mph3.7 kmh 29.34 in993.6 mb - 0.00 in0.0 mm 0.00 in0.0 mm
02:45 PM 41.7°F5.4°C 31.2°F-0.4°C 66% 2.3 mph NNW3.7 kmh NNW 4.6 mph7.4 kmh 29.34 in993.6 mb - 0.00 in0.0 mm 0.00 in0.0 mm
03:00 PM 41.4°F5.2°C 30.5°F-0.8°C 65% 3.5 mph N5.6 kmh N 4.6 mph7.4 kmh 29.34 in993.6 mb - 0.00 in0.0 mm 0.00 in0.0 mm
03:15 PM 40.9°F4.9°C 31.1°F-0.5°C 68% 3.5 mph NNW5.6 kmh NNW 3.5 mph5.6 kmh 29.35 in993.9 mb - 0.00 in0.0 mm 0.00 in0.0 mm
03:30 PM 41.7°F5.4°C 30.4°F-0.9°C 64% 2.3 mph ESE3.7 kmh ESE 2.3 mph3.7 kmh 29.35 in993.9 mb - 0.00 in0.0 mm 0.00 in0.0 mm
03:45 PM 40.1°F4.5°C 31.1°F-0.5°C 70% 1.2 mph NW1.9 kmh NW 2.3 mph3.7 kmh 29.36 in994.2 mb - 0.00 in0.0 mm 0.00 in0.0 mm
04:00 PM 38.7°F3.7°C 29.8°F-1.2°C 70% 2.3 mph W3.7 kmh W 2.3 mph3.7 kmh 29.36 in994.2 mb - 0.00 in0.0 mm 0.00 in0.0 mm
04:15 PM 39.7°F4.3°C 30.4°F-0.9°C 69% Calm Calm -- 29.36 in994.2 mb - 0.00 in0.0 mm 0.00 in0.0 mm
04:30 PM 39.7°F4.3°C 30.7°F-0.7°C 70% 2.3 mph NNW3.7 kmh NNW 2.3 mph3.7 kmh 29.37 in994.6 mb - 0.00 in0.0 mm 0.00 in0.0 mm
04:45 PM 40.0°F4.4°C 29.5°F-1.4°C 66% 2.3 mph NW3.7 kmh NW 2.3 mph3.7 kmh 29.37 in994.6 mb - 0.00 in0.0 mm 0.00 in0.0 mm
05:00 PM 38.5°F3.6°C 28.5°F-1.9°C 67% 2.3 mph WNW3.7 kmh WNW 2.3 mph3.7 kmh 29.38 in994.9 mb - 0.00 in0.0 mm 0.00 in0.0 mm
05:15 PM 36.9°F2.7°C 27.7°F-2.4°C 69% 2.3 mph NW3.7 kmh NW 2.3 mph3.7 kmh 29.38 in994.9 mb - 0.00 in0.0 mm 0.00 in0.0 mm
05:30 PM 36.3°F2.4°C 28.1°F-2.2°C 72% 3.5 mph NE5.6 kmh NE 4.6 mph7.4 kmh 29.38 in994.9 mb - 0.00 in0.0 mm 0.00 in0.0 mm
05:45 PM 35.8°F2.1°C 27.3°F-2.6°C 71% 1.2 mph W1.9 kmh W 2.3 mph3.7 kmh 29.39 in995.3 mb - 0.00 in0.0 mm 0.00 in0.0 mm
06:00 PM 34.9°F1.6°C 27.1°F-2.7°C 73% 2.3 mph WNW3.7 kmh WNW 2.3 mph3.7 kmh 29.39 in995.3 mb - 0.00 in0.0 mm 0.00 in0.0 mm
06:15 PM 34.7°F1.5°C 27.9°F-2.3°C 76% Calm Calm -- 29.39 in995.3 mb - 0.00 in0.0 mm 0.00 in0.0 mm
06:30 PM 34.7°F1.5°C 27.9°F-2.3°C 76% 2.3 mph NE3.7 kmh NE 2.3 mph3.7 kmh 29.40 in995.6 mb - 0.00 in0.0 mm 0.00 in0.0 mm
06:45 PM 34.2°F1.2°C 28.1°F-2.2°C 78% 2.3 mph S3.7 kmh S 2.3 mph3.7 kmh 29.40 in995.6 mb - 0.00 in0.0 mm 0.00 in0.0 mm
07:00 PM 33.3°F0.7°C 27.5°F-2.5°C 79% Calm Calm -- 29.40 in995.6 mb - 0.00 in0.0 mm 0.00 in0.0 mm
07:15 PM 32.5°F0.3°C 26.4°F-3.1°C 78% Calm Calm -- 29.41 in995.9 mb - 0.00 in0.0 mm 0.00 in0.0 mm
07:30 PM 31.8°F-0.1°C 27.5°F-2.5°C 84% Calm Calm -- 29.41 in995.9 mb - 0.00 in0.0 mm 0.00 in0.0 mm
07:45 PM 30.9°F-0.6°C 26.9°F-2.8°C 85% Calm Calm -- 29.41 in995.9 mb - 0.00 in0.0 mm 0.00 in0.0 mm
08:00 PM 30.1°F-1.1°C 26.7°F-2.9°C 87% Calm Calm 1.2 mph1.9 kmh 29.41 in995.9 mb - 0.00 in0.0 mm 0.00 in0.0 mm
08:15 PM 29.5°F-1.4°C 26.1°F-3.3°C 87% Calm Calm -- 29.42 in996.3 mb - 0.00 in0.0 mm 0.00 in0.0 mm
08:30 PM 28.8°F-1.8°C 26.0°F-3.3°C 89% Calm Calm -- 29.42 in996.3 mb - 0.00 in0.0 mm 0.00 in0.0 mm
08:45 PM 28.2°F-2.1°C 25.4°F-3.7°C 89% Calm Calm -- 29.43 in996.6 mb - 0.00 in0.0 mm 0.00 in0.0 mm
09:00 PM 28.0°F-2.2°C 24.9°F-3.9°C 88% Calm Calm -- 29.43 in996.6 mb - 0.00 in0.0 mm 0.00 in0.0 mm
09:15 PM 27.9°F-2.3°C 24.8°F-4.0°C 88% Calm Calm 1.2 mph1.9 kmh 29.43 in996.6 mb - 0.00 in0.0 mm 0.00 in0.0 mm
09:30 PM 27.7°F-2.4°C 24.6°F-4.1°C 88% Calm Calm 2.3 mph3.7 kmh 29.43 in996.6 mb - 0.00 in0.0 mm 0.00 in0.0 mm
09:45 PM 27.3°F-2.6°C 24.5°F-4.2°C 89% 1.2 mph S1.9 kmh S 1.2 mph1.9 kmh 29.43 in996.6 mb - 0.00 in0.0 mm 0.00 in0.0 mm
10:00 PM 27.0°F-2.8°C 23.9°F-4.5°C 88% 2.3 mph NW3.7 kmh NW 2.3 mph3.7 kmh 29.43 in996.6 mb - 0.00 in0.0 mm 0.00 in0.0 mm
10:15 PM 27.1°F-2.7°C 24.8°F-4.0°C 91% Calm Calm -- 29.44 in997.0 mb - 0.00 in0.0 mm 0.00 in0.0 mm
10:30 PM 27.1°F-2.7°C 24.0°F-4.4°C 88% Calm Calm 1.2 mph1.9 kmh 29.44 in997.0 mb - 0.00 in0.0 mm 0.00 in0.0 mm
10:45 PM 27.1°F-2.7°C 24.0°F-4.4°C 88% 2.3 mph NW3.7 kmh NW 2.3 mph3.7 kmh 29.44 in997.0 mb - 0.00 in0.0 mm 0.00 in0.0 mm
11:00 PM 27.0°F-2.8°C 24.2°F-4.3°C 89% Calm Calm 2.3 mph3.7 kmh 29.44 in997.0 mb - 0.00 in0.0 mm 0.00 in0.0 mm
11:15 PM 26.6°F-3.0°C 23.5°F-4.7°C 88% Calm Calm -- 29.44 in997.0 mb - 0.00 in0.0 mm 0.00 in0.0 mm
11:30 PM 26.6°F-3.0°C 23.3°F-4.8°C 87% Calm Calm 2.3 mph3.7 kmh 29.44 in997.0 mb - 0.00 in0.0 mm 0.00 in0.0 mm
11:45 PM 26.4°F-3.1°C 23.1°F-4.9°C 87% Calm Calm -- 29.43 in996.6 mb - 0.00 in0.0 mm 0.00 in0.0 mm